Time;durP1;ratioP1;P1;durP2;ratioP2;P2;SDS_P1;SDS_P2;PMS_P1;PMS_P2;Temp;Humidity;BMP_temperature;BMP_pressure;BME280_temperature;BME280_humidity;BME280_pressure;Samples;Min_cycle;Max_cycle;Signal;HPM_P1;HPM_P2
2022/09/30 00:00:01;;;;;;;3.47;1.90;;;7.70;98.00;;;;;;5073080;28;21002;-67
2022/09/30 00:02:28;;;;;;;2.63;1.60;;;7.70;98.00;;;;;;5073198;28;20975;-67
2022/09/30 00:04:55;;;;;;;2.53;2.30;;;7.70;98.00;;;;;;5073291;28;20736;-67
2022/09/30 00:07:22;;;;;;;3.60;1.80;;;7.70;98.00;;;;;;5073193;28;20463;-67
2022/09/30 00:09:49;;;;;;;1.50;1.30;;;7.70;98.00;;;;;;5073116;28;20900;-67
2022/09/30 00:12:16;;;;;;;2.50;1.70;;;7.70;98.00;;;;;;5073047;28;20461;-67
2022/09/30 00:14:45;;;;;;;2.60;1.93;;;7.80;98.00;;;;;;5073208;28;20482;-67
2022/09/30 00:17:17;;;;;;;3.50;1.87;;;7.90;98.00;;;;;;5072977;28;20453;-67
2022/09/30 00:19:44;;;;;;;2.17;1.50;;;7.90;98.00;;;;;;5073105;28;20453;-67
2022/09/30 00:22:11;;;;;;;2.20;1.90;;;8.00;98.00;;;;;;5072747;28;20446;-67
2022/09/30 00:24:38;;;;;;;2.70;1.70;;;8.00;98.00;;;;;;5055385;28;20719;-67
2022/09/30 00:27:05;;;;;;;3.10;1.87;;;8.10;98.00;;;;;;5072681;28;20465;-67
2022/09/30 00:29:32;;;;;;;2.60;1.80;;;8.20;98.00;;;;;;5055440;28;20458;-67
2022/09/30 00:32:02;;;;;;;3.43;2.43;;;8.40;98.00;;;;;;5073240;28;20463;-67
2022/09/30 00:34:30;;;;;;;1.87;1.80;;;8.50;98.00;;;;;;5072945;28;20464;-67
2022/09/30 00:36:57;;;;;;;4.70;1.87;;;8.70;98.00;;;;;;5055056;28;20459;-67
2022/09/30 00:39:26;;;;;;;3.27;2.10;;;8.80;98.00;;;;;;5072644;28;20465;-67
2022/09/30 00:41:58;;;;;;;2.40;1.70;;;8.60;98.00;;;;;;5072388;28;20454;-67
2022/09/30 00:44:49;;;;;;;2.93;1.80;;;8.50;98.00;;;;;;5072571;28;20550;-67
2022/09/30 00:47:49;;;;;;;2.83;1.70;;;8.50;98.00;;;;;;5072304;28;20450;-67
2022/09/30 00:50:35;;;;;;;4.00;1.90;;;8.30;98.00;;;;;;5072187;28;20586;-67
2022/09/30 00:53:09;;;;;;;3.10;2.17;;;8.30;98.00;;;;;;5072352;28;20484;-67
2022/09/30 00:55:53;;;;;;;3.77;2.43;;;8.30;98.00;;;;;;5072093;28;20463;-68
2022/09/30 00:58:25;;;;;;;3.90;2.33;;;8.40;98.00;;;;;;5072290;28;20459;-67
2022/09/30 01:00:52;;;;;;;4.80;2.30;;;8.50;98.00;;;;;;5072045;28;20467;-67
2022/09/30 01:03:22;;;;;;;2.23;2.00;;;8.50;98.00;;;;;;5071222;28;20539;-68
2022/09/30 01:05:50;;;;;;;4.97;2.10;;;8.40;98.00;;;;;;5072127;28;20503;-67
2022/09/30 01:08:19;;;;;;;4.20;2.27;;;8.30;98.00;;;;;;5072026;28;20455;-67
2022/09/30 01:10:46;;;;;;;2.53;1.57;;;8.30;98.00;;;;;;5072001;28;20491;-67
2022/09/30 01:13:16;;;;;;;3.90;2.30;;;8.50;98.00;;;;;;5071894;28;20520;-67
2022/09/30 01:16:11;;;;;;;2.07;1.60;;;8.50;98.00;;;;;;5071912;28;20460;-67
2022/09/30 01:18:54;;;;;;;3.90;2.27;;;8.60;98.00;;;;;;5071820;28;20480;-68
2022/09/30 01:22:03;;;;;;;2.77;1.87;;;8.80;98.00;;;;;;5071862;28;20463;-68
2022/09/30 01:24:57;;;;;;;2.57;1.73;;;8.80;98.00;;;;;;5071729;28;20890;-67
2022/09/30 01:27:47;;;;;;;4.20;1.87;;;8.70;98.00;;;;;;5071668;28;20536;-67
2022/09/30 01:30:18;;;;;;;4.17;2.40;;;8.70;98.00;;;;;;5072098;28;20569;-68
2022/09/30 01:33:16;;;;;;;4.90;2.87;;;8.70;98.00;;;;;;5071669;28;20467;-68
2022/09/30 01:36:06;;;;;;;4.03;2.20;;;8.60;98.00;;;;;;5071675;28;20460;-67
2022/09/30 01:38:45;;;;;;;2.80;2.00;;;8.60;98.00;;;;;;5054972;28;20985;-67
2022/09/30 01:41:23;;;;;;;2.47;2.07;;;8.50;98.00;;;;;;5054565;28;20943;-67
2022/09/30 01:44:01;;;;;;;1.87;1.43;;;8.50;98.00;;;;;;5054604;28;20466;-67
2022/09/30 01:46:34;;;;;;;2.70;1.80;;;8.50;98.00;;;;;;5054810;28;20453;-67
2022/09/30 01:49:12;;;;;;;1.80;1.67;;;8.50;98.00;;;;;;5053614;28;20944;-67
2022/09/30 01:51:43;;;;;;;3.40;1.53;;;8.50;98.00;;;;;;5071310;28;20486;-68
2022/09/30 01:54:18;;;;;;;2.47;2.10;;;8.50;98.00;;;;;;5071355;28;20475;-67
2022/09/30 01:56:49;;;;;;;2.57;1.70;;;8.50;98.00;;;;;;5054463;28;20464;-67
2022/09/30 01:59:21;;;;;;;3.70;2.57;;;8.50;98.00;;;;;;5071282;28;20966;-67
2022/09/30 02:01:54;;;;;;;2.40;2.23;;;8.70;98.00;;;;;;5053410;28;20465;-67
2022/09/30 02:04:26;;;;;;;2.93;2.10;;;8.60;98.00;;;;;;5071209;28;20453;-67
2022/09/30 02:06:57;;;;;;;2.13;1.80;;;8.60;98.00;;;;;;5071523;28;20459;-67
2022/09/30 02:09:28;;;;;;;2.23;1.80;;;8.60;98.00;;;;;;5071239;28;20807;-67
2022/09/30 02:11:56;;;;;;;4.50;1.83;;;8.40;98.00;;;;;;5071108;28;20983;-67
2022/09/30 02:14:29;;;;;;;4.13;2.10;;;8.30;98.00;;;;;;5076072;28;20822;-67
2022/09/30 02:17:01;;;;;;;6.40;2.37;;;8.10;98.00;;;;;;5077678;28;20462;-67
2022/09/30 02:19:37;;;;;;;3.10;2.10;;;8.10;98.00;;;;;;5077785;28;20471;-68
2022/09/30 02:22:10;;;;;;;4.50;2.20;;;8.10;98.00;;;;;;5077766;28;20874;-67
2022/09/30 02:24:39;;;;;;;2.70;1.87;;;8.10;98.00;;;;;;5077837;28;20462;-68
2022/09/30 02:29:56;;;;;;;2.90;1.70;;;8.10;98.00;;;;;;5078032;28;20464;-68
2022/09/30 02:32:28;;;;;;;2.20;1.70;;;8.10;98.00;;;;;;5077865;28;20461;-67
2022/09/30 02:35:01;;;;;;;3.90;2.23;;;8.30;98.00;;;;;;5060359;28;20496;-67
2022/09/30 02:37:34;;;;;;;4.40;2.17;;;8.40;98.00;;;;;;5077509;28;20452;-67
2022/09/30 02:40:09;;;;;;;3.43;2.10;;;8.50;98.00;;;;;;5077640;28;20458;-67
2022/09/30 02:42:40;;;;;;;1.53;1.50;;;8.60;98.00;;;;;;5077633;28;20862;-67
2022/09/30 02:45:10;;;;;;;3.43;1.80;;;8.70;98.00;;;;;;5060278;28;20461;-67
2022/09/30 02:47:51;;;;;;;2.53;1.93;;;8.70;98.00;;;;;;5077449;28;20461;-67
2022/09/30 02:50:31;;;;;;;2.60;2.07;;;8.30;98.00;;;;;;5077766;28;20479;-67
2022/09/30 02:53:08;;;;;;;1.93;1.47;;;8.30;98.00;;;;;;5077370;28;20519;-67
2022/09/30 02:55:44;;;;;;;2.80;1.80;;;8.30;98.00;;;;;;5077360;28;21063;-67
2022/09/30 02:58:14;;;;;;;1.73;1.50;;;8.10;98.00;;;;;;5059769;28;20460;-67
2022/09/30 03:00:41;;;;;;;2.13;1.87;;;7.90;98.00;;;;;;5077232;28;21040;-67
2022/09/30 03:03:16;;;;;;;2.10;1.77;;;7.90;98.00;;;;;;5077299;28;20474;-67
2022/09/30 03:05:45;;;;;;;1.67;1.40;;;7.80;98.00;;;;;;5059641;28;20522;-67
2022/09/30 03:08:12;;;;;;;2.80;1.73;;;7.60;98.00;;;;;;5077412;28;20481;-67
2022/09/30 03:10:40;;;;;;;2.07;1.67;;;7.60;98.00;;;;;;5077193;28;20495;-67
2022/09/30 03:13:22;;;;;;;2.80;1.83;;;7.70;98.00;;;;;;5077357;28;20472;-68
2022/09/30 03:16:01;;;;;;;4.27;2.00;;;7.80;98.00;;;;;;5059745;28;20560;-67
2022/09/30 03:18:49;;;;;;;2.03;1.27;;;7.70;98.00;;;;;;5077441;28;20460;-67
2022/09/30 03:21:33;;;;;;;2.37;1.53;;;7.70;98.00;;;;;;5056290;28;20872;-67
2022/09/30 03:24:31;;;;;;;4.83;1.83;;;7.50;98.00;;;;;;5077239;28;20538;-67
2022/09/30 03:27:11;;;;;;;1.53;1.50;;;7.40;98.00;;;;;;5073679;28;20466;-67
2022/09/30 03:29:46;;;;;;;1.67;1.40;;;7.40;98.00;;;;;;5074386;28;20453;-67
2022/09/30 03:32:29;;;;;;;3.20;2.00;;;7.40;98.00;;;;;;5056364;28;20485;-67
2022/09/30 03:35:04;;;;;;;1.57;1.40;;;7.60;98.00;;;;;;5056227;28;20464;-67
2022/09/30 03:37:44;;;;;;;2.60;1.50;;;7.90;98.00;;;;;;5073368;28;20463;-67
2022/09/30 03:40:20;;;;;;;1.90;1.80;;;8.00;98.00;;;;;;5073773;28;20541;-67
2022/09/30 03:42:53;;;;;;;3.00;1.87;;;8.20;98.00;;;;;;5073716;28;20460;-67
2022/09/30 03:45:25;;;;;;;6.80;1.93;;;8.30;98.00;;;;;;5056830;28;20512;-67
2022/09/30 03:47:56;;;;;;;4.63;2.13;;;8.40;98.00;;;;;;5073768;28;20455;-67
2022/09/30 03:50:25;;;;;;;2.73;1.83;;;8.40;98.00;;;;;;5073636;28;20465;-67
2022/09/30 03:52:54;;;;;;;2.53;1.77;;;8.30;98.00;;;;;;5073781;28;20457;-67
2022/09/30 03:55:24;;;;;;;3.10;2.00;;;8.20;98.00;;;;;;5055859;28;20515;-67
2022/09/30 03:57:53;;;;;;;2.60;1.73;;;8.10;98.00;;;;;;5073294;28;20946;-67
2022/09/30 04:00:20;;;;;;;2.23;1.90;;;8.10;98.00;;;;;;5073343;28;20476;-67
2022/09/30 04:02:47;;;;;;;3.10;2.07;;;8.10;98.00;;;;;;5073531;28;20461;-67
2022/09/30 04:05:14;;;;;;;2.60;1.47;;;8.10;98.00;;;;;;5073412;28;20451;-67
2022/09/30 04:07:42;;;;;;;3.10;2.07;;;8.00;98.00;;;;;;5055325;28;20452;-67
2022/09/30 04:10:12;;;;;;;2.60;2.03;;;8.00;98.00;;;;;;5073211;28;20449;-67
2022/09/30 04:12:39;;;;;;;2.80;1.83;;;8.20;98.00;;;;;;5038914;28;20482;-67
2022/09/30 04:15:07;;;;;;;1.50;1.30;;;8.00;98.00;;;;;;5073364;28;20854;-67
2022/09/30 04:17:34;;;;;;;2.70;1.93;;;8.00;98.00;;;;;;5055523;28;20774;-67
2022/09/30 04:20:01;;;;;;;3.57;2.20;;;8.10;98.00;;;;;;5055407;28;20457;-67
2022/09/30 04:22:28;;;;;;;2.20;1.50;;;8.10;98.00;;;;;;5073000;28;20871;-67
2022/09/30 04:24:55;;;;;;;2.80;1.80;;;7.80;98.00;;;;;;5073072;28;20828;-68
2022/09/30 04:27:23;;;;;;;2.07;1.77;;;7.70;98.00;;;;;;5073060;28;20504;-67
2022/09/30 04:29:50;;;;;;;4.60;2.23;;;7.70;98.00;;;;;;5072955;28;20470;-67
2022/09/30 04:32:17;;;;;;;3.00;2.00;;;7.90;98.00;;;;;;5072961;28;20891;-67
2022/09/30 04:34:44;;;;;;;2.10;1.60;;;8.00;98.00;;;;;;5072767;28;20454;-67
2022/09/30 04:37:12;;;;;;;2.83;2.20;;;8.20;98.00;;;;;;5072395;28;20462;-68
2022/09/30 04:39:40;;;;;;;4.30;2.63;;;8.30;98.00;;;;;;5055061;28;20941;-67
2022/09/30 04:42:07;;;;;;;1.97;1.63;;;8.30;98.00;;;;;;5072491;28;20461;-67
2022/09/30 04:44:36;;;;;;;2.07;1.90;;;8.20;98.00;;;;;;5054882;28;20837;-67
2022/09/30 04:47:05;;;;;;;3.10;2.20;;;8.00;98.00;;;;;;5072384;28;20822;-67
2022/09/30 04:49:32;;;;;;;4.07;2.30;;;7.80;98.00;;;;;;5054776;28;20553;-67
2022/09/30 04:51:59;;;;;;;2.07;1.93;;;7.70;98.00;;;;;;5072379;28;20490;-67
2022/09/30 04:54:26;;;;;;;1.50;1.27;;;7.60;98.00;;;;;;5072645;28;20459;-67
2022/09/30 04:56:54;;;;;;;2.60;1.80;;;7.50;98.00;;;;;;5072189;28;20464;-67
2022/09/30 04:59:21;;;;;;;2.67;1.70;;;7.40;98.00;;;;;;5054615;28;20457;-67
2022/09/30 05:01:50;;;;;;;2.20;1.93;;;7.30;98.00;;;;;;5038163;28;20501;-67
2022/09/30 05:04:17;;;;;;;1.97;1.77;;;7.30;98.00;;;;;;5072083;28;20457;-67
2022/09/30 05:06:50;;;;;;;2.97;1.90;;;7.60;98.00;;;;;;5072072;28;20459;-67
2022/09/30 05:09:17;;;;;;;2.43;1.60;;;7.60;98.00;;;;;;5072244;28;20472;-67
2022/09/30 05:11:44;;;;;;;3.40;1.77;;;7.70;98.00;;;;;;5071939;28;20487;-67
2022/09/30 05:14:11;;;;;;;1.40;1.30;;;7.60;98.00;;;;;;5071969;28;20455;-67
2022/09/30 05:16:40;;;;;;;2.53;1.87;;;7.60;98.00;;;;;;5071862;28;20467;-67
2022/09/30 05:19:09;;;;;;;1.80;1.50;;;7.50;98.00;;;;;;5071759;28;21002;-68
2022/09/30 05:21:36;;;;;;;1.53;1.40;;;7.50;98.00;;;;;;5072031;28;20944;-67
2022/09/30 05:24:04;;;;;;;1.77;1.70;;;7.60;98.00;;;;;;5072012;28;20873;-67
2022/09/30 05:26:31;;;;;;;4.47;2.60;;;7.60;98.00;;;;;;5054133;28;20462;-67
2022/09/30 05:28:58;;;;;;;2.00;1.77;;;7.70;98.00;;;;;;5071944;28;20541;-68
2022/09/30 05:31:25;;;;;;;3.83;2.10;;;7.90;98.00;;;;;;5071547;28;20484;-67
2022/09/30 05:33:54;;;;;;;2.70;1.90;;;8.00;98.00;;;;;;5071530;28;20456;-67
2022/09/30 05:36:22;;;;;;;1.77;1.60;;;8.00;98.00;;;;;;5071583;28;20448;-67
2022/09/30 05:38:51;;;;;;;3.70;2.03;;;7.80;98.00;;;;;;5071483;28;20978;-67
2022/09/30 05:41:19;;;;;;;2.00;1.73;;;7.80;98.00;;;;;;5054073;28;20548;-67
2022/09/30 05:43:47;;;;;;;4.57;2.20;;;7.70;98.00;;;;;;5071455;28;20876;-67
2022/09/30 05:46:15;;;;;;;3.83;1.60;;;7.60;98.00;;;;;;5053867;28;21001;-67
2022/09/30 05:48:43;;;;;;;3.90;2.00;;;7.50;98.00;;;;;;5052767;28;20518;-67
2022/09/30 05:51:10;;;;;;;1.97;1.50;;;7.60;98.00;;;;;;5053526;28;20866;-67
2022/09/30 05:53:39;;;;;;;3.40;1.80;;;7.70;98.00;;;;;;5071475;28;20462;-67
2022/09/30 05:56:06;;;;;;;3.30;2.10;;;7.90;98.00;;;;;;5071245;28;20469;-67
2022/09/30 05:58:34;;;;;;;2.00;1.63;;;8.00;98.00;;;;;;5071334;28;20533;-67
2022/09/30 06:01:07;;;;;;;2.63;1.87;;;7.80;98.00;;;;;;5071067;28;20530;-66
2022/09/30 06:03:35;;;;;;;3.03;1.90;;;7.80;98.00;;;;;;5071490;28;20456;-66
2022/09/30 06:06:02;;;;;;;1.60;1.50;;;7.70;98.00;;;;;;5071382;28;20837;-66
2022/09/30 06:08:29;;;;;;;1.90;1.53;;;7.80;98.00;;;;;;5071360;28;20461;-66
2022/09/30 06:10:58;;;;;;;2.97;1.90;;;7.90;98.00;;;;;;5071181;28;20487;-66
2022/09/30 06:13:26;;;;;;;4.70;1.70;;;7.90;98.00;;;;;;5071257;28;20491;-66
2022/09/30 06:15:57;;;;;;;2.40;1.40;;;7.90;98.00;;;;;;5053157;28;20470;-66
2022/09/30 06:18:26;;;;;;;2.20;1.63;;;7.80;98.00;;;;;;5071303;28;20457;-66
2022/09/30 06:20:57;;;;;;;1.57;1.53;;;7.80;98.00;;;;;;5071216;28;20453;-66
2022/09/30 06:23:24;;;;;;;3.07;2.40;;;7.90;98.00;;;;;;5071114;28;20453;-67
2022/09/30 06:25:51;;;;;;;3.37;2.30;;;7.80;98.00;;;;;;5071137;28;20457;-66
2022/09/30 06:28:20;;;;;;;8.10;2.40;;;7.80;98.00;;;;;;5071425;28;20541;-67
2022/09/30 06:30:48;;;;;;;3.10;1.70;;;7.70;98.00;;;;;;5071055;28;20466;-67
2022/09/30 06:33:16;;;;;;;2.67;2.23;;;7.90;98.00;;;;;;5071038;28;20824;-67
2022/09/30 06:35:43;;;;;;;3.07;2.20;;;8.00;98.00;;;;;;5071212;28;20609;-67
2022/09/30 06:38:10;;;;;;;2.37;2.13;;;8.20;98.00;;;;;;5052935;28;20457;-66
2022/09/30 06:40:38;;;;;;;2.53;1.87;;;8.20;98.00;;;;;;5070831;28;20449;-67
2022/09/30 06:43:06;;;;;;;6.90;2.30;;;8.20;98.00;;;;;;5070967;28;20793;-67
2022/09/30 06:45:36;;;;;;;6.77;2.97;;;8.20;98.00;;;;;;5070762;28;20445;-67
2022/09/30 06:48:06;;;;;;;4.40;2.57;;;8.30;98.00;;;;;;5070800;28;20454;-67
2022/09/30 06:50:33;;;;;;;3.27;2.90;;;8.20;98.00;;;;;;5070853;28;21009;-67
2022/09/30 06:53:01;;;;;;;3.97;2.10;;;8.20;98.00;;;;;;5070464;28;20556;-67
2022/09/30 06:55:30;;;;;;;4.07;2.60;;;8.40;98.00;;;;;;5070697;28;20461;-67
2022/09/30 06:57:58;;;;;;;3.43;1.93;;;8.40;98.00;;;;;;5070608;28;20483;-67
2022/09/30 07:00:27;;;;;;;2.93;1.77;;;8.50;98.00;;;;;;5071433;28;20475;-66
2022/09/30 07:02:56;;;;;;;7.00;2.57;;;8.60;98.00;;;;;;5074260;28;20456;-66
2022/09/30 07:05:25;;;;;;;7.30;2.20;;;8.60;98.00;;;;;;5072894;28;20465;-67
2022/09/30 07:07:52;;;;;;;3.73;2.17;;;8.60;98.00;;;;;;5071570;28;20466;-66
2022/09/30 07:10:20;;;;;;;2.33;2.17;;;8.70;98.00;;;;;;5071981;28;20460;-67
2022/09/30 07:12:50;;;;;;;2.40;2.20;;;8.70;98.00;;;;;;5071572;28;20496;-67
2022/09/30 07:15:18;;;;;;;4.13;2.20;;;8.70;98.00;;;;;;5071960;28;20955;-67
2022/09/30 07:17:51;;;;;;;5.57;2.53;;;8.70;98.00;;;;;;5071521;28;20456;-67
2022/09/30 07:20:23;;;;;;;4.80;3.30;;;8.80;98.00;;;;;;5071851;28;20535;-67
2022/09/30 07:22:51;;;;;;;4.37;2.30;;;8.80;98.00;;;;;;5071744;28;20453;-67
2022/09/30 07:25:18;;;;;;;3.63;2.10;;;8.80;98.00;;;;;;5071339;28;20469;-67
2022/09/30 07:27:45;;;;;;;3.33;2.40;;;8.80;98.00;;;;;;5071658;28;20465;-67
2022/09/30 07:30:12;;;;;;;2.13;1.93;;;8.90;98.00;;;;;;5071847;28;20461;-67
2022/09/30 07:32:39;;;;;;;2.97;2.60;;;8.90;98.00;;;;;;5071625;28;20489;-67
2022/09/30 07:35:07;;;;;;;5.50;2.23;;;8.90;98.00;;;;;;5071527;28;20502;-67
2022/09/30 07:37:36;;;;;;;2.60;2.03;;;8.80;98.00;;;;;;5071336;28;20455;-67
2022/09/30 07:40:05;;;;;;;2.70;2.33;;;8.80;98.00;;;;;;5071139;28;20451;-67
2022/09/30 07:42:33;;;;;;;3.80;1.80;;;8.90;98.00;;;;;;5071293;28;20514;-67
2022/09/30 07:45:00;;;;;;;6.30;2.40;;;9.00;98.00;;;;;;5053578;28;20461;-67
2022/09/30 07:47:28;;;;;;;2.30;1.80;;;9.10;98.00;;;;;;5071117;28;20461;-67
2022/09/30 07:49:55;;;;;;;3.97;2.17;;;9.10;98.00;;;;;;5070074;28;20463;-67
2022/09/30 07:52:22;;;;;;;1.93;1.67;;;9.20;98.00;;;;;;5053261;28;20486;-67
2022/09/30 07:54:50;;;;;;;3.40;2.00;;;9.20;98.00;;;;;;5053364;28;20473;-67
2022/09/30 07:57:26;;;;;;;2.50;1.57;;;9.30;98.00;;;;;;5070865;28;20452;-67
2022/09/30 07:59:53;;;;;;;1.83;1.80;;;9.30;98.00;;;;;;5070768;28;20498;-67
2022/09/30 08:02:23;;;;;;;3.13;2.13;;;9.40;98.00;;;;;;5053048;28;20449;-67
2022/09/30 08:04:51;;;;;;;5.27;2.87;;;9.40;98.00;;;;;;5036993;28;20461;-67
2022/09/30 08:07:19;;;;;;;2.93;2.00;;;9.50;98.00;;;;;;5070779;28;20460;-67
2022/09/30 08:09:47;;;;;;;3.90;2.37;;;9.50;98.00;;;;;;5053374;28;20496;-67
2022/09/30 08:12:21;;;;;;;5.13;2.20;;;9.60;98.00;;;;;;5070147;28;20513;-67
2022/09/30 08:14:48;;;;;;;2.73;2.10;;;9.80;98.00;;;;;;5070702;28;20454;-67
2022/09/30 08:17:15;;;;;;;3.73;2.13;;;9.90;98.00;;;;;;5070440;28;20499;-67
2022/09/30 08:19:43;;;;;;;4.40;3.20;;;10.00;98.00;;;;;;5070664;28;20456;-67
2022/09/30 08:22:12;;;;;;;3.33;2.07;;;10.10;98.00;;;;;;5070388;28;20964;-67
2022/09/30 08:24:39;;;;;;;3.13;2.00;;;10.10;98.00;;;;;;5088056;28;20464;-67
2022/09/30 08:27:06;;;;;;;3.97;2.30;;;10.20;98.00;;;;;;5092993;28;20455;-67
2022/09/30 08:29:35;;;;;;;1.40;1.37;;;10.30;98.00;;;;;;5093235;28;20460;-67
2022/09/30 08:32:02;;;;;;;3.13;2.20;;;10.40;98.00;;;;;;5093226;28;20455;-67
2022/09/30 08:34:33;;;;;;;2.33;2.00;;;10.40;98.00;;;;;;5093489;28;20457;-67
2022/09/30 08:37:00;;;;;;;1.90;1.80;;;10.40;98.00;;;;;;5075736;28;20533;-67
2022/09/30 08:39:28;;;;;;;5.43;2.23;;;10.40;98.00;;;;;;5093112;28;20541;-67
2022/09/30 08:42:14;;;;;;;1.80;1.70;;;10.40;98.00;;;;;;5092753;28;20463;-67
2022/09/30 08:44:45;;;;;;;3.20;2.23;;;10.50;98.00;;;;;;5092883;28;20816;-67
2022/09/30 08:47:41;;;;;;;6.57;2.90;;;10.50;98.00;;;;;;5092601;28;20455;-67
2022/09/30 08:50:19;;;;;;;6.03;2.23;;;10.40;98.00;;;;;;5092640;28;20521;-67
2022/09/30 08:52:50;;;;;;;2.80;2.27;;;10.50;98.00;;;;;;5092576;28;20478;-67
2022/09/30 08:55:22;;;;;;;4.73;2.20;;;10.70;98.00;;;;;;5092551;28;20459;-67
2022/09/30 08:57:52;;;;;;;3.73;2.37;;;11.00;98.00;;;;;;5092648;28;20560;-67
2022/09/30 09:00:25;;;;;;;5.37;2.73;;;11.10;98.00;;;;;;5092435;28;20466;-67
2022/09/30 09:02:54;;;;;;;3.00;1.70;;;11.20;98.00;;;;;;5092354;28;21029;-67
2022/09/30 09:05:36;;;;;;;3.60;2.07;;;11.30;98.00;;;;;;5092384;28;20585;-67
2022/09/30 09:08:11;;;;;;;2.37;1.90;;;11.50;98.00;;;;;;5092319;28;20455;-67
2022/09/30 09:10:44;;;;;;;3.17;2.40;;;11.50;98.00;;;;;;5092355;28;20878;-67
2022/09/30 09:13:26;;;;;;;3.27;2.40;;;11.70;98.00;;;;;;5092119;28;20940;-67
2022/09/30 09:16:05;;;;;;;5.47;2.37;;;11.80;98.00;;;;;;5092178;28;20447;-67
2022/09/30 09:18:54;;;;;;;4.43;2.53;;;11.90;98.00;;;;;;5092337;28;20455;-65
2022/09/30 09:21:28;;;;;;;3.40;2.33;;;12.00;98.00;;;;;;5092093;28;20480;-67
2022/09/30 09:23:59;;;;;;;2.87;1.77;;;12.10;98.00;;;;;;5091383;28;20453;-67
2022/09/30 09:26:30;;;;;;;3.33;2.30;;;12.30;98.00;;;;;;5092148;28;20464;-67
2022/09/30 09:29:08;;;;;;;4.70;2.97;;;12.50;98.00;;;;;;5092386;28;20855;-67
2022/09/30 09:31:37;;;;;;;6.37;2.87;;;12.60;98.00;;;;;;5092329;28;20467;-67
2022/09/30 09:34:12;;;;;;;5.60;3.27;;;12.60;98.00;;;;;;5092147;28;20571;-67
2022/09/30 09:36:56;;;;;;;4.47;2.67;;;12.90;98.00;;;;;;5074658;28;20466;-67
2022/09/30 09:39:42;;;;;;;3.83;2.57;;;13.10;98.00;;;;;;5092066;28;20461;-67
2022/09/30 09:42:29;;;;;;;3.60;2.03;;;13.30;98.00;;;;;;5058900;28;20458;-67
2022/09/30 09:45:02;;;;;;;2.40;2.10;;;13.40;98.00;;;;;;5091534;28;20456;-67
2022/09/30 09:47:31;;;;;;;5.27;3.13;;;13.50;98.00;;;;;;5091847;28;20991;-67
2022/09/30 09:49:59;;;;;;;3.80;2.40;;;13.60;98.00;;;;;;5091450;28;20988;-66
2022/09/30 09:52:58;;;;;;;5.80;2.50;;;14.00;98.00;;;;;;5091622;28;20461;-66
2022/09/30 09:55:25;;;;;;;4.60;2.53;;;14.20;98.00;;;;;;5076921;28;20452;-66
2022/09/30 09:58:06;;;;;;;4.07;2.63;;;14.60;98.00;;;;;;5091330;28;20461;-66
2022/09/30 10:03:22;;;;;;;6.67;2.47;;;15.20;98.00;;;;;;5091559;28;20443;-68
2022/09/30 10:06:01;;;;;;;3.20;2.27;;;15.50;98.00;;;;;;5091569;28;20506;-65
2022/09/30 10:08:30;;;;;;;2.90;1.80;;;15.70;98.00;;;;;;5091698;28;20886;-67
2022/09/30 10:10:59;;;;;;;4.90;2.80;;;16.10;98.00;;;;;;5091422;28;20875;-67
2022/09/30 10:13:30;;;;;;;3.70;2.27;;;16.20;98.00;;;;;;5091323;28;20491;-67
2022/09/30 10:15:59;;;;;;;2.70;2.10;;;16.30;98.00;;;;;;5091281;28;20554;-67
2022/09/30 10:18:31;;;;;;;3.23;2.03;;;16.50;98.00;;;;;;5091358;28;20460;-67
2022/09/30 10:21:01;;;;;;;4.00;2.57;;;16.70;98.00;;;;;;5091246;28;20843;-67
2022/09/30 10:23:32;;;;;;;3.93;2.50;;;16.80;98.00;;;;;;5091574;28;20455;-67
2022/09/30 10:26:05;;;;;;;2.67;2.13;;;17.00;98.00;;;;;;5091631;28;20478;-67
2022/09/30 10:28:34;;;;;;;4.30;2.50;;;17.10;98.00;;;;;;5091253;28;20471;-67
2022/09/30 10:31:05;;;;;;;4.27;2.40;;;17.30;98.00;;;;;;5091465;28;20461;-67
2022/09/30 10:33:41;;;;;;;3.77;2.03;;;17.40;98.00;;;;;;5091447;28;20556;-67
2022/09/30 10:36:11;;;;;;;2.60;1.70;;;17.50;98.00;;;;;;5095251;28;20938;-67
2022/09/30 10:38:49;;;;;;;5.33;2.13;;;17.80;98.00;;;;;;5094965;28;20455;-67
2022/09/30 10:41:25;;;;;;;3.27;2.20;;;17.70;98.00;;;;;;5095427;28;20462;-67
2022/09/30 10:43:54;;;;;;;2.20;1.73;;;17.70;98.00;;;;;;5095272;28;20804;-67
2022/09/30 10:46:27;;;;;;;3.10;2.10;;;17.90;98.00;;;;;;5095085;28;20455;-67
2022/09/30 10:48:57;;;;;;;2.30;1.90;;;18.00;98.00;;;;;;5095004;28;20467;-67
2022/09/30 10:51:32;;;;;;;3.80;2.30;;;18.20;98.00;;;;;;5094809;28;20561;-67
2022/09/30 10:54:00;;;;;;;3.83;2.23;;;18.40;98.00;;;;;;5094894;28;20515;-67
2022/09/30 10:56:52;;;;;;;3.50;2.00;;;18.60;98.00;;;;;;5095206;28;20464;-67
2022/09/30 10:59:31;;;;;;;2.23;1.97;;;18.50;98.00;;;;;;5091550;28;20459;-67
2022/09/30 11:02:19;;;;;;;1.83;1.50;;;18.60;98.00;;;;;;5094599;28;20519;-67
2022/09/30 11:04:55;;;;;;;3.80;2.03;;;19.00;98.00;;;;;;5094883;28;20500;-67
2022/09/30 11:07:29;;;;;;;5.20;1.90;;;19.30;98.00;;;;;;5094642;28;20477;-67
2022/09/30 11:10:01;;;;;;;2.90;1.90;;;19.50;98.00;;;;;;5094783;28;20490;-67
2022/09/30 11:12:35;;;;;;;1.97;1.80;;;19.70;98.00;;;;;;5093685;28;20459;-67
2022/09/30 11:15:12;;;;;;;2.70;1.80;;;19.90;97.60;;;;;;5094727;28;20456;-67
2022/09/30 11:17:47;;;;;;;1.50;1.50;;;20.20;97.60;;;;;;5094609;28;20512;-67
2022/09/30 11:20:25;;;;;;;3.13;1.83;;;20.40;94.50;;;;;;5094790;28;20455;-67
2022/09/30 11:23:03;;;;;;;1.63;1.37;;;20.60;95.90;;;;;;5094677;28;20795;-67
2022/09/30 11:25:39;;;;;;;3.10;1.90;;;21.00;93.10;;;;;;5094517;28;20467;-68
2022/09/30 11:28:26;;;;;;;2.33;1.73;;;21.10;91.70;;;;;;5094579;28;20741;-68
2022/09/30 11:31:02;;;;;;;2.10;1.60;;;21.10;90.60;;;;;;5078052;28;20983;-67
2022/09/30 11:33:43;;;;;;;2.43;1.63;;;21.30;89.30;;;;;;5076840;28;20509;-67
2022/09/30 11:36:23;;;;;;;2.00;1.70;;;21.50;88.50;;;;;;5094143;28;20555;-67
2022/09/30 11:39:02;;;;;;;2.03;1.90;;;21.50;87.10;;;;;;5094094;28;20455;-67
2022/09/30 11:41:34;;;;;;;2.00;1.60;;;21.60;85.80;;;;;;5094149;28;20468;-67
2022/09/30 11:44:14;;;;;;;1.77;1.60;;;21.30;84.70;;;;;;5094030;28;20452;-67
2022/09/30 11:47:07;;;;;;;2.90;1.70;;;21.00;88.80;;;;;;5075190;28;20513;-67
2022/09/30 11:49:59;;;;;;;2.90;1.80;;;21.20;86.80;;;;;;5093879;28;20467;-67
2022/09/30 11:52:33;;;;;;;2.83;1.93;;;21.50;83.40;;;;;;5090355;28;20456;-67
2022/09/30 11:55:21;;;;;;;1.77;1.53;;;20.90;85.20;;;;;;5094004;28;20487;-68
2022/09/30 11:57:54;;;;;;;2.93;1.93;;;20.40;85.40;;;;;;5093831;28;20482;-67
2022/09/30 12:00:21;;;;;;;1.97;1.33;;;20.20;84.60;;;;;;5093596;28;20463;-67
2022/09/30 12:02:51;;;;;;;2.07;1.83;;;20.30;84.80;;;;;;5093521;28;20865;-70
2022/09/30 12:05:23;;;;;;;2.33;1.60;;;21.10;94.70;;;;;;5093643;28;20517;-69
2022/09/30 12:07:55;;;;;;;1.67;1.60;;;22.00;86.70;;;;;;5093473;28;20517;-68
2022/09/30 12:10:27;;;;;;;1.80;1.57;;;22.20;87.50;;;;;;5093379;28;20459;-70
2022/09/30 12:12:59;;;;;;;2.00;1.60;;;22.20;81.40;;;;;;5093645;28;20464;-70
2022/09/30 12:15:26;;;;;;;1.70;1.40;;;22.30;81.70;;;;;;5093490;28;20456;-64
2022/09/30 12:17:59;;;;;;;2.07;1.50;;;22.50;82.70;;;;;;5088381;28;20480;-65
2022/09/30 12:20:30;;;;;;;1.77;1.50;;;22.40;80.70;;;;;;5073294;28;20451;-66
2022/09/30 12:23:05;;;;;;;1.40;1.40;;;22.40;81.60;;;;;;5072864;28;20502;-64
2022/09/30 12:25:41;;;;;;;1.87;1.50;;;22.50;79.40;;;;;;5038680;28;20518;-65
2022/09/30 12:31:19;;;;;;;2.07;1.53;;;22.60;77.90;;;;;;5057621;28;20515;-68
2022/09/30 12:34:01;;;;;;;1.77;1.57;;;22.90;80.40;;;;;;5072579;28;20490;-65
2022/09/30 12:36:49;;;;;;;1.77;1.43;;;22.90;77.60;;;;;;5072631;28;20464;-68
2022/09/30 12:40:13;;;;;;;1.57;1.40;;;22.80;77.80;;;;;;5072784;28;20466;-69
2022/09/30 12:43:08;;;;;;;1.43;1.40;;;22.60;78.80;;;;;;5010450;28;20874;-68
2022/09/30 12:46:13;;;;;;;2.80;1.70;;;22.50;79.60;;;;;;4994245;28;20479;-67
2022/09/30 12:48:44;;;;;;;2.00;1.60;;;22.60;81.30;;;;;;5056420;28;20479;-67
2022/09/30 12:51:25;;;;;;;1.40;1.20;;;22.40;80.80;;;;;;5072553;28;20465;-66
2022/09/30 12:53:59;;;;;;;2.10;1.70;;;22.50;81.70;;;;;;5072347;28;20485;-66
2022/09/30 12:56:29;;;;;;;1.70;1.40;;;22.80;81.20;;;;;;5055037;28;20449;-67
2022/09/30 12:58:59;;;;;;;3.97;1.77;;;23.20;80.70;;;;;;5072150;28;20959;-67
2022/09/30 13:01:43;;;;;;;1.73;1.60;;;23.30;79.20;;;;;;5072213;28;20457;-68
2022/09/30 13:04:17;;;;;;;2.50;2.00;;;23.20;80.30;;;;;;5072516;28;20993;-66
2022/09/30 13:07:17;;;;;;;2.10;1.60;;;23.50;78.50;;;;;;5072018;28;20463;-66
2022/09/30 13:09:58;;;;;;;2.43;1.67;;;23.60;78.70;;;;;;5060426;28;20475;-67
2022/09/30 13:12:29;;;;;;;1.63;1.50;;;23.80;80.30;;;;;;5072086;28;20502;-64
2022/09/30 13:15:38;;;;;;;1.97;1.70;;;24.00;79.20;;;;;;5072370;28;20487;-66
2022/09/30 13:18:39;;;;;;;3.40;1.80;;;24.10;78.00;;;;;;5072056;28;20488;-67
2022/09/30 13:21:25;;;;;;;2.50;2.00;;;24.20;75.40;;;;;;5072136;28;20465;-68
2022/09/30 13:23:53;;;;;;;2.60;2.00;;;24.20;77.10;;;;;;5071987;28;20444;-67
2022/09/30 13:26:38;;;;;;;1.63;1.60;;;24.30;76.00;;;;;;5071907;28;20457;-65
2022/09/30 13:29:41;;;;;;;2.80;1.87;;;24.40;76.60;;;;;;5054136;28;21040;-67
2022/09/30 13:32:31;;;;;;;1.83;1.60;;;24.50;75.90;;;;;;5071280;28;20460;-68